createdAt,value
2019-05-10T00:01:50.642Z,99884.84
2019-05-10T00:05:11.992Z,99887.75
2019-05-10T00:08:33.952Z,99896.88
2019-05-10T00:11:55.778Z,99895.24
2019-05-10T00:14:59.588Z,99899.54
2019-05-10T00:18:03.300Z,99891.71
2019-05-10T00:21:07.360Z,99891.50
2019-05-10T00:24:11.081Z,99892.06
2019-05-10T00:27:15.188Z,99895.48
2019-05-10T00:30:19.067Z,99897.75
2019-05-10T00:33:22.796Z,99900.58
2019-05-10T00:36:26.582Z,99896.16
2019-05-10T00:39:30.391Z,99900.61
2019-05-10T00:42:34.362Z,99898.81
2019-05-10T00:45:38.099Z,99898.17
2019-05-10T00:48:42.078Z,99902.53
2019-05-10T00:51:45.804Z,99900.83
2019-05-10T00:54:49.535Z,99894.64
2019-05-10T00:57:53.300Z,99901.86
2019-05-10T01:00:57.431Z,99903.47
2019-05-10T01:04:01.130Z,99908.22
2019-05-10T01:07:05.146Z,99909.03
2019-05-10T01:10:09.227Z,99911.16
2019-05-10T01:13:13.247Z,99912.64
2019-05-10T01:16:17.261Z,99905.97
2019-05-10T01:19:20.972Z,99901.75
2019-05-10T01:22:24.777Z,99902.52
2019-05-10T01:25:35.277Z,99905.50
2019-05-10T01:28:34.254Z,99908.80
2019-05-10T01:31:38.079Z,99910.06
2019-05-10T01:34:41.792Z,99914.28
2019-05-10T01:37:45.497Z,99933.69
2019-05-10T01:40:49.198Z,99925.87
2019-05-10T01:43:52.907Z,99926.13
2019-05-10T01:46:56.599Z,99937.91
2019-05-10T01:50:00.399Z,99937.11
2019-05-10T01:53:04.098Z,99949.80
2019-05-10T01:56:07.799Z,99950.43
2019-05-10T01:59:11.813Z,99956.42
2019-05-10T02:02:15.607Z,99954.72
2019-05-10T02:05:19.475Z,99955.02
2019-05-10T02:08:23.466Z,99958.75
2019-05-10T02:11:27.234Z,99964.77
2019-05-10T02:14:30.959Z,99953.30
2019-05-10T02:17:34.754Z,99954.06
2019-05-10T02:20:38.452Z,99966.78
2019-05-10T02:23:42.155Z,99958.92
2019-05-10T02:26:45.844Z,99966.62
2019-05-10T02:29:49.544Z,99965.71
2019-05-10T02:32:53.244Z,99969.81
2019-05-10T02:35:56.937Z,99972.71
2019-05-10T02:39:00.639Z,99977.07
2019-05-10T02:42:04.694Z,99985.40
2019-05-10T02:45:08.783Z,99989.61
2019-05-10T02:48:12.556Z,99989.40
2019-05-10T02:51:16.243Z,99987.52
2019-05-10T02:54:20.018Z,99985.27
2019-05-10T02:57:23.792Z,99989.71
2019-05-10T03:00:29.319Z,99988.63
2019-05-10T03:03:33.365Z,99986.73
2019-05-10T03:06:39.312Z,99987.67
2019-05-10T03:09:46.325Z,99982.84
2019-05-10T03:12:53.410Z,99996.42
2019-05-10T03:15:59.236Z,100006.06
2019-05-10T03:19:03.869Z,100011.31
2019-05-10T03:22:07.677Z,100014.12
2019-05-10T03:25:11.965Z,100023.84
2019-05-10T03:28:15.919Z,100028.38
2019-05-10T03:31:19.739Z,100029.07
2019-05-10T03:34:23.450Z,100029.91
2019-05-10T03:37:27.586Z,100027.36
2019-05-10T03:40:31.553Z,100038.81
2019-05-10T03:43:35.290Z,100039.59
2019-05-10T03:46:39.009Z,100037.55
2019-05-10T03:49:42.976Z,100039.12
2019-05-10T03:52:51.705Z,100038.11
2019-05-10T03:55:52.113Z,100045.19
2019-05-10T03:58:55.825Z,100038.52
2019-05-10T04:01:59.855Z,100051.81
2019-05-10T04:05:03.596Z,100047.84
2019-05-10T04:08:07.368Z,100045.12
2019-05-10T04:11:11.355Z,100045.36
2019-05-10T04:14:15.128Z,100040.45
2019-05-10T04:17:18.869Z,100043.58
2019-05-10T04:20:22.591Z,100042.95
2019-05-10T04:23:26.308Z,100053.78
2019-05-10T04:26:30.021Z,100063.22
2019-05-10T04:29:33.823Z,100062.76
2019-05-10T04:32:37.552Z,100069.25
2019-05-10T04:35:41.569Z,100064.86
2019-05-10T04:38:45.271Z,100070.02
2019-05-10T04:41:49.244Z,100069.31
2019-05-10T04:44:54.113Z,100083.82
2019-05-10T04:47:57.894Z,100083.17
2019-05-10T04:51:01.610Z,100088.48
2019-05-10T04:54:05.559Z,100092.92
2019-05-10T04:57:09.332Z,100091.39
2019-05-10T05:00:13.206Z,100091.83
2019-05-10T05:03:16.919Z,100094.90
2019-05-10T05:06:20.980Z,100100.11
2019-05-10T05:09:24.690Z,100096.09
2019-05-10T05:12:28.429Z,100094.17
2019-05-10T05:15:32.742Z,100100.03
2019-05-10T05:18:36.447Z,100100.67
2019-05-10T05:21:40.441Z,100106.98
2019-05-10T05:24:44.170Z,100103.22
2019-05-10T05:27:47.880Z,100102.13
2019-05-10T05:30:51.590Z,100112.56
2019-05-10T05:33:59.081Z,100112.48
2019-05-10T05:37:00.752Z,100120.20
2019-05-10T05:40:05.094Z,100112.83
2019-05-10T05:43:09.913Z,100117.52
2019-05-10T05:46:14.553Z,100123.59
2019-05-10T05:49:18.609Z,100118.22
2019-05-10T05:52:22.320Z,100121.79
2019-05-10T05:55:30.589Z,100121.73
2019-05-10T05:58:31.507Z,100122.78
2019-05-10T06:01:35.223Z,100126.44
2019-05-10T06:04:40.894Z,100133.69
2019-05-10T06:07:44.379Z,100132.63
2019-05-10T06:10:56.925Z,100137.28
2019-05-10T06:13:53.839Z,100139.46
2019-05-10T06:16:57.548Z,100145.05
2019-05-10T06:20:05.871Z,100147.03
2019-05-10T06:23:07.340Z,100151.48
2019-05-10T06:26:21.056Z,100149.75
2019-05-10T06:29:17.854Z,100154.28
2019-05-10T06:32:22.076Z,100157.56
2019-05-10T06:35:25.802Z,100166.63
2019-05-10T06:38:29.508Z,100164.83
2019-05-10T06:41:33.233Z,100167.15
2019-05-10T06:44:36.951Z,100170.88
2019-05-10T06:47:42.104Z,100170.22
2019-05-10T06:50:46.380Z,100171.55
2019-05-10T06:53:53.603Z,100176.91
2019-05-10T06:56:56.187Z,100179.45
2019-05-10T07:00:06.154Z,100170.73
2019-05-10T07:03:05.601Z,100180.41
2019-05-10T07:06:09.355Z,100185.86
2019-05-10T07:09:13.128Z,100188.73
2019-05-10T07:12:18.470Z,100177.44
2019-05-10T07:15:22.397Z,100182.28
2019-05-10T07:18:26.112Z,100184.84
2019-05-10T07:21:30.178Z,100185.91
2019-05-10T07:24:33.915Z,100187.19
2019-05-10T07:27:38.701Z,100196.05
2019-05-10T07:30:42.677Z,100194.91
2019-05-10T07:33:46.384Z,100196.05
2019-05-10T07:36:50.133Z,100204.25
2019-05-10T07:39:53.808Z,100201.65
2019-05-10T07:42:57.521Z,100211.30
2019-05-10T07:46:06.553Z,100211.36
2019-05-10T07:49:06.726Z,100216.06
2019-05-10T07:52:10.452Z,100218.74
2019-05-10T07:55:17.945Z,100221.13
2019-05-10T07:58:20.019Z,100227.86
2019-05-10T08:01:33.085Z,100227.14
2019-05-10T08:04:33.594Z,100235.78
2019-05-10T08:07:34.956Z,100238.13
2019-05-10T08:10:39.483Z,100243.61
2019-05-10T08:13:43.369Z,100241.81
2019-05-10T08:16:49.811Z,100253.25
2019-05-10T08:19:52.600Z,100256.22
2019-05-10T08:22:56.320Z,100265.16
2019-05-10T08:26:04.218Z,100266.33
2019-05-10T08:29:07.498Z,100269.02
2019-05-10T08:32:12.811Z,100271.40
2019-05-10T08:35:18.691Z,100277.29
2019-05-10T08:38:22.122Z,100278.88
2019-05-10T08:41:25.825Z,100281.81
2019-05-10T08:44:29.558Z,100285.05
2019-05-10T08:47:33.278Z,100290.37
2019-05-10T08:50:49.782Z,100292.67
2019-05-10T08:53:47.160Z,100298.44
2019-05-10T08:56:55.029Z,100299.66
2019-05-10T09:00:02.202Z,100305.03
2019-05-10T09:03:00.866Z,100309.55
2019-05-10T09:06:11.963Z,100319.05
2019-05-10T09:09:12.378Z,100318.84
2019-05-10T09:12:15.983Z,100316.73
2019-05-10T09:15:22.113Z,100312.51
2019-05-10T09:18:25.136Z,100323.81
2019-05-10T09:21:28.847Z,100334.05
2019-05-10T09:24:34.966Z,100337.38
2019-05-10T09:27:38.003Z,100331.25
2019-05-10T09:30:56.407Z,100335.63
2019-05-10T09:33:49.615Z,100341.72
2019-05-10T09:36:53.123Z,100343.51
2019-05-10T09:40:05.405Z,100342.70
2019-05-10T09:43:05.148Z,100341.69
2019-05-10T09:46:08.124Z,100347.55
2019-05-10T09:49:18.119Z,100354.89
2019-05-10T09:52:18.778Z,100357.98
2019-05-10T09:55:22.744Z,100363.90
2019-05-10T09:58:28.223Z,100372.78
2019-05-10T10:01:31.896Z,100381.05
2019-05-10T10:04:37.245Z,100387.28
2019-05-10T10:07:41.063Z,100392.93
2019-05-10T10:10:47.399Z,100398.98
2019-05-10T10:13:58.926Z,100404.00
2019-05-10T10:17:00.500Z,100419.53
2019-05-10T10:20:01.545Z,100420.16
2019-05-10T10:23:07.257Z,100423.62
2019-05-10T10:26:12.556Z,100423.84
2019-05-10T10:29:17.280Z,100433.30
2019-05-10T10:32:24.632Z,100427.83
2019-05-10T10:35:29.710Z,100436.27
2019-05-10T10:38:37.046Z,100442.69
2019-05-10T10:41:37.561Z,100448.30
2019-05-10T10:44:41.241Z,100444.48
2019-05-10T10:47:47.154Z,100449.23
2019-05-10T10:50:55.587Z,100454.06
2019-05-10T10:53:58.038Z,100458.89
2019-05-10T10:57:01.605Z,100456.27
2019-05-10T11:00:07.622Z,100461.65
2019-05-10T11:03:11.412Z,100474.55
2019-05-10T11:06:15.514Z,100473.61
2019-05-10T11:09:20.688Z,100478.06
2019-05-10T11:12:24.574Z,100482.52
2019-05-10T11:15:34.786Z,100482.02
2019-05-10T11:18:34.445Z,100488.25
2019-05-10T11:21:38.479Z,100486.56
2019-05-10T11:24:42.191Z,100495.97
2019-05-10T11:27:47.693Z,100498.94
2019-05-10T11:30:51.652Z,100509.35
2019-05-10T11:33:58.390Z,100516.23
2019-05-10T11:37:00.771Z,100515.73
2019-05-10T11:40:04.655Z,100514.69
2019-05-10T11:43:08.327Z,100519.02
2019-05-10T11:46:12.030Z,100517.25
2019-05-10T11:49:15.971Z,100515.03
2019-05-10T11:52:21.714Z,100516.67
2019-05-10T11:55:25.090Z,100519.45
2019-05-10T11:58:31.078Z,100532.52
2019-05-10T12:01:34.651Z,100535.87
2019-05-10T12:04:40.390Z,100527.79
2019-05-10T12:07:46.162Z,100543.22
2019-05-10T12:10:59.093Z,100543.72
2019-05-10T12:13:57.492Z,100555.47
2019-05-10T12:17:05.597Z,100553.56
2019-05-10T12:20:06.060Z,100553.16
2019-05-10T12:23:13.251Z,100556.55
2019-05-10T12:27:13.025Z,100563.97
2019-05-10T12:29:21.391Z,100568.20
2019-05-10T12:32:27.119Z,100571.78
2019-05-10T12:35:35.596Z,100571.26
2019-05-10T12:38:38.449Z,100590.20
2019-05-10T12:41:48.409Z,100597.05
2019-05-10T12:44:48.257Z,100603.97
2019-05-10T12:47:52.123Z,100600.97
2019-05-10T12:50:59.496Z,100607.29
2019-05-10T12:54:01.257Z,100616.64
2019-05-10T12:57:05.031Z,100607.61
2019-05-10T13:00:13.063Z,100618.59
2019-05-10T13:03:18.677Z,100626.47
2019-05-10T13:06:20.973Z,100623.98
2019-05-10T13:09:38.539Z,100631.39
2019-05-10T13:12:30.141Z,100633.76
2019-05-10T13:15:33.840Z,100630.86
2019-05-10T13:18:53.012Z,100639.88
2019-05-10T13:21:42.959Z,100641.33
2019-05-10T13:24:46.992Z,100646.98
2019-05-10T13:27:51.289Z,100645.11
2019-05-10T13:30:59.790Z,100649.33
2019-05-10T13:34:00.438Z,100647.45
2019-05-10T13:37:04.205Z,100653.70
2019-05-10T13:40:08.649Z,100657.00
2019-05-10T13:43:17.307Z,100666.93
2019-05-10T13:46:17.954Z,100669.20
2019-05-10T13:49:21.659Z,100671.44
2019-05-10T13:52:29.773Z,100686.77
2019-05-10T13:55:30.902Z,100684.14
2019-05-10T13:58:34.594Z,100690.39
2019-05-10T14:01:38.312Z,100684.89
2019-05-10T14:04:42.071Z,100691.08
2019-05-10T14:07:51.882Z,100692.28
2019-05-10T14:10:55.895Z,100700.09
2019-05-10T14:13:57.004Z,100699.95
2019-05-10T14:17:00.744Z,100709.72
2019-05-10T14:20:05.472Z,100711.73
2019-05-10T14:23:09.119Z,100707.20
2019-05-10T14:26:15.833Z,100712.61
2019-05-10T14:29:18.257Z,100718.57
2019-05-10T14:32:21.967Z,100707.63
2019-05-10T14:35:25.711Z,100712.13
2019-05-10T14:38:29.413Z,100713.70
2019-05-10T14:41:33.124Z,100718.80
2019-05-10T14:44:38.487Z,100713.85
2019-05-10T14:47:50.008Z,100716.45
2019-05-10T14:50:47.681Z,100718.63
2019-05-10T14:53:51.396Z,100728.99
2019-05-10T14:56:55.123Z,100731.34
2019-05-10T14:59:58.920Z,100732.98
2019-05-10T15:03:03.803Z,100741.48
2019-05-10T15:06:07.602Z,100751.52
2019-05-10T15:09:20.558Z,100756.83
2019-05-10T15:12:22.265Z,100752.16
2019-05-10T15:15:22.886Z,100753.80
2019-05-10T15:18:26.643Z,100757.78
2019-05-10T15:21:30.355Z,100757.70
2019-05-10T15:24:34.059Z,100764.30
2019-05-10T15:27:37.770Z,100762.91
2019-05-10T15:30:46.019Z,100771.04
2019-05-10T15:33:47.640Z,100769.23
2019-05-10T15:36:51.384Z,100769.82
2019-05-10T15:39:55.083Z,100778.69
2019-05-10T15:42:58.794Z,100782.55
2019-05-10T15:46:02.493Z,100780.02
2019-05-10T15:49:06.479Z,100787.48
2019-05-10T15:55:17.137Z,100796.02
2019-05-10T15:58:21.444Z,100781.16
2019-05-10T15:59:23.579Z,100786.19
2019-05-10T16:01:27.035Z,100784.16
2019-05-10T16:04:31.276Z,100786.02
2019-05-10T16:07:35.006Z,100790.86
2019-05-10T16:10:40.751Z,100800.40
2019-05-10T16:13:44.144Z,100799.92
2019-05-10T16:16:47.852Z,100800.76
2019-05-10T16:19:59.520Z,100809.05
2019-05-10T16:22:56.996Z,100804.60
2019-05-10T16:26:00.805Z,100813.02
2019-05-10T16:29:04.585Z,100816.15
2019-05-10T16:32:08.284Z,100820.19
2019-05-10T16:35:14.546Z,100829.11
2019-05-10T16:38:18.317Z,100824.55
2019-05-10T16:41:22.134Z,100821.67
2019-05-10T16:44:26.038Z,100836.45
2019-05-10T16:47:29.908Z,100842.42
2019-05-10T16:50:33.912Z,100842.54
2019-05-10T16:53:43.873Z,100841.77
2019-05-10T16:56:43.376Z,100845.16
2019-05-10T16:59:47.095Z,100848.45
2019-05-10T17:02:50.793Z,100848.47
2019-05-10T17:05:58.640Z,100848.84
2019-05-10T17:08:59.978Z,100851.97
2019-05-10T17:12:03.688Z,100854.36
2019-05-10T17:15:08.489Z,100853.13
2019-05-10T17:18:17.412Z,100854.23
2019-05-10T17:21:17.629Z,100850.97
2019-05-10T17:24:24.019Z,100851.22
2019-05-10T17:27:26.927Z,100864.45
2019-05-10T17:30:31.005Z,100865.64
2019-05-10T17:33:36.842Z,100866.78
2019-05-10T17:36:40.226Z,100869.56
2019-05-10T17:39:43.928Z,100868.97
2019-05-10T17:42:51.238Z,100875.59
2019-05-10T17:45:53.313Z,100877.45
2019-05-10T17:48:57.377Z,100876.12
2019-05-10T17:52:01.093Z,100875.94
2019-05-10T17:55:05.380Z,100877.06
2019-05-10T17:58:09.105Z,100879.59
2019-05-10T18:01:13.061Z,100879.20
2019-05-10T18:04:16.776Z,100882.52
2019-05-10T18:07:20.496Z,100887.70
2019-05-10T18:10:24.168Z,100887.08
2019-05-10T18:13:27.880Z,100893.36
2019-05-10T18:16:31.933Z,100894.29
2019-05-10T18:19:35.727Z,100894.80
2019-05-10T18:22:43.416Z,100903.12
2019-05-10T18:25:44.933Z,100898.50
2019-05-10T18:28:48.754Z,100905.44
2019-05-10T18:31:56.321Z,100907.56
2019-05-10T18:34:57.896Z,100904.11
2019-05-10T18:38:01.670Z,100909.04
2019-05-10T18:41:10.056Z,100908.88
2019-05-10T18:44:14.308Z,100910.75
2019-05-10T18:47:16.992Z,100906.08
2019-05-10T18:50:21.010Z,100907.90
2019-05-10T18:53:24.726Z,100907.30
2019-05-10T18:56:31.353Z,100916.03
2019-05-10T18:59:33.952Z,100918.06
2019-05-10T19:02:37.996Z,100920.03
2019-05-10T19:05:41.692Z,100925.23
2019-05-10T19:08:45.404Z,100932.89
2019-05-10T19:11:49.495Z,100934.09
2019-05-10T19:14:53.651Z,100934.30
2019-05-10T19:17:57.424Z,100939.28
2019-05-10T19:21:01.436Z,100938.35
2019-05-10T19:24:05.162Z,100937.30
2019-05-10T19:27:09.418Z,100948.35
2019-05-10T19:30:20.099Z,100949.80
2019-05-10T19:33:19.391Z,100957.97
2019-05-10T19:36:23.168Z,100962.06
2019-05-10T19:39:26.891Z,100964.44
2019-05-10T19:42:31.663Z,100966.66
2019-05-10T19:45:35.846Z,100973.52
2019-05-10T19:48:39.548Z,100973.32
2019-05-10T19:51:48.549Z,100972.20
2019-05-10T19:54:48.686Z,100971.98
2019-05-10T19:57:54.643Z,100973.94
2019-05-10T20:00:57.826Z,100982.25
2019-05-10T20:04:01.864Z,100974.78
2019-05-10T20:07:05.631Z,100976.11
2019-05-10T20:10:09.680Z,100978.98
2019-05-10T20:13:13.384Z,100983.06
2019-05-10T20:16:17.347Z,100984.59
2019-05-10T20:19:21.033Z,100991.77
2019-05-10T20:22:24.728Z,100994.52
2019-05-10T20:25:28.443Z,101002.80
2019-05-10T20:28:32.140Z,100999.95
2019-05-10T20:31:35.909Z,101007.27
2019-05-10T20:34:39.613Z,101010.63
2019-05-10T20:37:43.614Z,101008.28
2019-05-10T20:40:47.659Z,101012.85
2019-05-10T20:43:51.353Z,101014.02
2019-05-10T20:46:55.063Z,101007.88
2019-05-10T20:49:58.766Z,101013.30
2019-05-10T20:53:02.470Z,101010.41
2019-05-10T20:56:06.174Z,101010.18
2019-05-10T20:59:09.899Z,101013.28
2019-05-10T21:02:13.610Z,101010.78
2019-05-10T21:05:17.332Z,101013.92
2019-05-10T21:08:21.055Z,101018.38
2019-05-10T21:11:25.032Z,101020.75
2019-05-10T21:14:28.723Z,101022.56
2019-05-10T21:17:32.432Z,101022.92
2019-05-10T21:20:36.468Z,101016.16
2019-05-10T21:23:40.180Z,101026.38
2019-05-10T21:26:43.892Z,101020.73
2019-05-10T21:29:47.705Z,101023.59
2019-05-10T21:32:51.667Z,101025.86
2019-05-10T21:35:55.354Z,101028.03
2019-05-10T21:38:59.431Z,101030.88
2019-05-10T21:42:03.435Z,101037.38
2019-05-10T21:45:07.581Z,101041.99
2019-05-10T21:48:11.285Z,101040.06
2019-05-10T21:51:14.977Z,101051.97
2019-05-10T21:54:18.945Z,101053.06
2019-05-10T21:57:22.722Z,101057.97
2019-05-10T22:00:29.203Z,101052.77
2019-05-10T22:03:32.923Z,101052.78
2019-05-10T22:06:36.690Z,101046.84
2019-05-10T22:09:40.398Z,101054.89
2019-05-10T22:12:44.107Z,101055.30
2019-05-10T22:15:47.802Z,101073.59
2019-05-10T22:18:59.745Z,101072.84
2019-05-10T22:22:03.445Z,101078.55
2019-05-10T22:25:07.340Z,101084.87
2019-05-10T22:28:11.032Z,101089.76
2019-05-10T22:31:14.791Z,101086.74
2019-05-10T22:34:18.481Z,101076.28
2019-05-10T22:37:22.180Z,101073.02
2019-05-10T22:40:25.880Z,101071.67
2019-05-10T22:43:29.678Z,101059.45
2019-05-10T22:46:33.667Z,101055.95
2019-05-10T22:49:37.413Z,101056.91
2019-05-10T22:52:41.382Z,101057.75
2019-05-10T22:55:45.078Z,101059.38
2019-05-10T22:58:48.781Z,101058.20
2019-05-10T23:01:52.490Z,101060.55
2019-05-10T23:04:56.203Z,101064.11
2019-05-10T23:07:59.895Z,101064.20
2019-05-10T23:11:03.598Z,101057.69
2019-05-10T23:14:07.374Z,101053.00
2019-05-10T23:17:11.068Z,101059.55
2019-05-10T23:20:15.133Z,101064.93
2019-05-10T23:23:21.021Z,101059.45
2019-05-10T23:26:24.552Z,101067.86
2019-05-10T23:29:28.253Z,101061.44
2019-05-10T23:32:31.939Z,101075.95
2019-05-10T23:35:35.644Z,101070.76
2019-05-10T23:38:39.341Z,101079.12
2019-05-10T23:41:43.355Z,101079.98
2019-05-10T23:44:47.370Z,101078.73
2019-05-10T23:47:51.082Z,101073.89
2019-05-10T23:50:54.813Z,101072.13
2019-05-10T23:53:58.769Z,101074.81
2019-05-10T23:57:02.799Z,101075.80
